createdAt,value
2018-06-15T00:02:22.077Z,82.11
2018-06-15T00:04:51.071Z,82.17
2018-06-15T00:07:19.891Z,82.50
2018-06-15T00:09:48.760Z,82.25
2018-06-15T00:12:17.654Z,80.69
2018-06-15T00:14:46.532Z,81.82
2018-06-15T00:17:15.375Z,81.99
2018-06-15T00:19:44.253Z,82.41
2018-06-15T00:22:13.144Z,81.97
2018-06-15T00:24:42.028Z,82.26
2018-06-15T00:27:10.879Z,82.34
2018-06-15T00:29:39.740Z,82.41
2018-06-15T00:32:08.621Z,82.60
2018-06-15T00:34:37.500Z,82.46
2018-06-15T00:37:06.388Z,82.62
2018-06-15T00:39:35.260Z,82.45
2018-06-15T00:42:04.149Z,82.37
2018-06-15T00:44:33.049Z,82.29
2018-06-15T00:47:01.933Z,82.35
2018-06-15T00:49:30.827Z,82.04
2018-06-15T00:51:59.730Z,82.36
2018-06-15T00:54:28.619Z,82.36
2018-06-15T00:57:33.869Z,82.37
2018-06-15T01:00:02.752Z,82.42
2018-06-15T01:02:31.625Z,82.69
2018-06-15T01:05:00.539Z,82.84
2018-06-15T01:07:29.346Z,81.87
2018-06-15T01:09:58.222Z,82.85
2018-06-15T01:12:27.082Z,82.79
2018-06-15T01:14:55.940Z,82.98
2018-06-15T01:17:24.776Z,82.78
2018-06-15T01:19:53.679Z,82.85
2018-06-15T01:22:22.560Z,83.02
2018-06-15T01:24:51.450Z,82.87
2018-06-15T01:27:20.344Z,82.53
2018-06-15T01:29:49.222Z,82.65
2018-06-15T01:32:18.120Z,81.62
2018-06-15T01:34:47.008Z,82.92
2018-06-15T01:37:15.896Z,82.92
2018-06-15T01:39:44.772Z,82.80
2018-06-15T01:42:13.627Z,81.55
2018-06-15T01:44:42.495Z,82.44
2018-06-15T01:47:11.381Z,82.76
2018-06-15T01:49:40.290Z,82.69
2018-06-15T01:52:09.207Z,82.80
2018-06-15T01:54:38.100Z,82.72
2018-06-15T01:57:06.974Z,82.86
2018-06-15T01:59:35.865Z,82.91
2018-06-15T02:02:04.729Z,83.09
2018-06-15T02:04:33.576Z,83.34
2018-06-15T02:07:02.484Z,83.53
2018-06-15T02:09:31.410Z,83.74
2018-06-15T02:12:00.278Z,83.63
2018-06-15T02:14:29.155Z,83.62
2018-06-15T02:16:58.032Z,83.39
2018-06-15T02:19:26.882Z,81.82
2018-06-15T02:21:55.749Z,82.97
2018-06-15T02:24:24.629Z,83.43
2018-06-15T02:26:53.496Z,83.36
2018-06-15T02:29:22.403Z,83.46
2018-06-15T02:31:51.252Z,83.46
2018-06-15T02:34:20.126Z,81.69
2018-06-15T02:36:49.011Z,82.89
2018-06-15T02:39:17.849Z,83.01
2018-06-15T02:41:46.686Z,82.96
2018-06-15T02:44:15.565Z,83.30
2018-06-15T02:46:44.456Z,83.33
2018-06-15T02:49:13.326Z,83.29
2018-06-15T02:51:42.192Z,83.75
2018-06-15T02:54:11.072Z,83.68
2018-06-15T02:56:39.913Z,83.56
2018-06-15T02:59:08.815Z,83.62
2018-06-15T03:01:37.680Z,83.69
2018-06-15T03:04:06.551Z,83.54
2018-06-15T03:06:35.466Z,83.41
2018-06-15T03:09:05.846Z,83.31
2018-06-15T03:11:34.750Z,83.68
2018-06-15T03:14:03.681Z,83.59
2018-06-15T03:16:32.574Z,83.70
2018-06-15T03:19:01.477Z,83.69
2018-06-15T03:21:30.365Z,83.53
2018-06-15T03:23:59.202Z,83.69
2018-06-15T03:26:28.078Z,83.72
2018-06-15T03:28:56.930Z,83.53
2018-06-15T03:31:25.824Z,83.71
2018-06-15T03:33:54.864Z,83.81
2018-06-15T03:36:23.755Z,83.60
2018-06-15T03:38:52.638Z,83.47
2018-06-15T03:41:21.492Z,83.09
2018-06-15T03:43:50.361Z,83.00
2018-06-15T03:46:19.278Z,82.77
2018-06-15T03:48:48.323Z,81.58
2018-06-15T03:51:17.203Z,82.78
2018-06-15T03:53:46.070Z,82.98
2018-06-15T03:56:14.965Z,83.03
2018-06-15T03:58:43.823Z,83.09
2018-06-15T04:01:12.672Z,83.34
2018-06-15T04:03:41.549Z,83.28
2018-06-15T04:06:10.406Z,83.38
2018-06-15T04:08:39.242Z,83.45
2018-06-15T04:11:08.081Z,82.96
2018-06-15T04:13:37.062Z,83.17
2018-06-15T04:16:05.990Z,83.20
2018-06-15T04:18:34.899Z,83.14
2018-06-15T04:21:03.766Z,83.45
2018-06-15T04:23:32.625Z,83.50
2018-06-15T04:26:01.500Z,83.35
2018-06-15T04:28:30.350Z,83.68
2018-06-15T04:30:59.192Z,83.68
2018-06-15T04:33:28.073Z,83.73
2018-06-15T04:35:57.026Z,84.00
2018-06-15T04:38:25.850Z,83.85
2018-06-15T04:40:54.759Z,82.39
2018-06-15T04:43:23.656Z,81.64
2018-06-15T04:45:52.559Z,82.69
2018-06-15T04:48:21.400Z,82.63
2018-06-15T04:50:50.278Z,82.74
2018-06-15T04:53:19.132Z,82.56
2018-06-15T04:55:48.003Z,82.78
2018-06-15T04:58:16.854Z,82.90
2018-06-15T05:00:45.719Z,82.91
2018-06-15T05:03:15.187Z,82.67
2018-06-15T05:05:44.844Z,82.40
2018-06-15T05:08:13.732Z,80.49
2018-06-15T05:10:42.604Z,81.56
2018-06-15T05:13:11.745Z,81.47
2018-06-15T05:15:40.646Z,81.28
2018-06-15T05:18:09.465Z,81.38
2018-06-15T05:20:38.301Z,81.46
2018-06-15T05:23:07.159Z,81.04
2018-06-15T05:25:36.033Z,81.33
2018-06-15T05:28:04.903Z,81.10
2018-06-15T05:30:33.737Z,80.89
2018-06-15T05:33:02.641Z,81.08
2018-06-15T05:35:31.500Z,81.15
2018-06-15T05:38:00.361Z,80.85
2018-06-15T05:40:29.196Z,80.70
2018-06-15T05:42:58.063Z,80.38
2018-06-15T05:45:26.968Z,80.07
2018-06-15T05:47:55.840Z,79.83
2018-06-15T05:50:24.675Z,79.91
2018-06-15T05:52:53.524Z,80.00
2018-06-15T05:55:22.436Z,79.61
2018-06-15T05:57:51.272Z,79.33
2018-06-15T06:00:20.307Z,79.25
2018-06-15T06:02:49.170Z,78.62
2018-06-15T06:05:18.013Z,78.14
2018-06-15T06:07:46.891Z,77.09
2018-06-15T06:10:15.793Z,76.63
2018-06-15T06:12:44.673Z,77.14
2018-06-15T06:15:13.565Z,76.88
2018-06-15T06:17:42.543Z,77.45
2018-06-15T06:20:11.579Z,77.50
2018-06-15T06:22:40.438Z,77.51
2018-06-15T06:25:09.382Z,77.08
2018-06-15T06:27:38.266Z,76.83
2018-06-15T06:30:07.167Z,77.13
2018-06-15T06:32:36.103Z,76.47
2018-06-15T06:35:04.944Z,75.79
2018-06-15T06:37:33.851Z,75.71
2018-06-15T06:40:02.763Z,75.62
2018-06-15T06:42:31.663Z,75.09
2018-06-15T06:45:00.548Z,75.61
2018-06-15T06:47:29.433Z,74.46
2018-06-15T06:49:58.338Z,74.81
2018-06-15T06:52:27.217Z,75.59
2018-06-15T06:54:56.102Z,75.67
2018-06-15T06:57:24.956Z,75.38
2018-06-15T06:59:53.811Z,74.94
2018-06-15T07:02:22.669Z,74.58
2018-06-15T07:04:51.565Z,74.25
2018-06-15T07:07:20.490Z,75.13
2018-06-15T07:09:49.372Z,74.77
2018-06-15T07:12:18.292Z,73.08
2018-06-15T07:14:47.146Z,73.62
2018-06-15T07:17:16.025Z,73.85
2018-06-15T07:19:44.903Z,74.89
2018-06-15T07:22:13.792Z,73.51
2018-06-15T07:24:42.695Z,74.08
2018-06-15T07:27:11.573Z,74.20
2018-06-15T07:29:40.475Z,74.08
2018-06-15T07:32:09.457Z,74.83
2018-06-15T07:34:38.332Z,74.00
2018-06-15T07:37:07.342Z,72.31
2018-06-15T07:39:36.264Z,73.33
2018-06-15T07:42:05.222Z,70.65
2018-06-15T07:44:34.426Z,69.37
2018-06-15T07:47:03.717Z,66.43
2018-06-15T07:49:32.593Z,66.64
2018-06-15T07:52:01.454Z,66.95
2018-06-15T07:54:30.356Z,67.10
2018-06-15T07:56:59.297Z,67.83
2018-06-15T07:59:28.215Z,68.84
2018-06-15T08:01:57.060Z,67.97
2018-06-15T08:04:25.993Z,65.84
2018-06-15T08:06:54.852Z,64.15
2018-06-15T08:09:23.763Z,64.60
2018-06-15T08:11:52.627Z,64.29
2018-06-15T08:14:21.465Z,63.61
2018-06-15T08:16:50.306Z,63.70
2018-06-15T08:19:19.139Z,64.13
2018-06-15T08:21:47.991Z,64.54
2018-06-15T08:24:16.821Z,63.67
2018-06-15T08:26:45.676Z,61.32
2018-06-15T08:29:14.528Z,59.52
2018-06-15T08:31:43.367Z,56.52
2018-06-15T08:34:12.411Z,56.16
2018-06-15T08:36:43.042Z,56.30
2018-06-15T08:39:16.261Z,57.10
2018-06-15T08:41:45.067Z,55.91
2018-06-15T08:44:13.931Z,54.68
2018-06-15T08:46:42.832Z,51.12
2018-06-15T08:49:11.673Z,49.91
2018-06-15T08:51:40.508Z,50.58
2018-06-15T08:54:09.447Z,52.92
2018-06-15T08:56:38.313Z,53.54
2018-06-15T08:59:07.181Z,56.82
2018-06-15T09:01:36.045Z,58.17
2018-06-15T09:04:04.914Z,57.61
2018-06-15T09:06:33.749Z,58.05
2018-06-15T09:09:02.625Z,58.27
2018-06-15T09:11:31.508Z,58.85
2018-06-15T09:14:00.393Z,58.95
2018-06-15T09:16:29.253Z,59.05
2018-06-15T09:18:58.126Z,60.18
2018-06-15T09:21:26.988Z,61.46
2018-06-15T09:23:55.927Z,61.96
2018-06-15T09:26:24.824Z,60.95
2018-06-15T09:28:53.687Z,60.11
2018-06-15T09:31:22.641Z,62.38
2018-06-15T09:33:51.490Z,62.04
2018-06-15T09:36:20.414Z,61.35
2018-06-15T09:38:49.281Z,61.53
2018-06-15T09:41:18.132Z,60.33
2018-06-15T09:43:47.021Z,59.57
2018-06-15T09:46:15.929Z,56.55
2018-06-15T09:48:45.343Z,51.94
2018-06-15T09:51:15.516Z,47.92
2018-06-15T09:53:44.239Z,47.36
2018-06-15T09:56:13.279Z,46.21
2018-06-15T09:58:42.777Z,45.89
2018-06-15T10:01:11.986Z,42.35
2018-06-15T10:03:41.223Z,40.81
2018-06-15T10:06:10.181Z,40.60
2018-06-15T10:08:39.023Z,41.51
2018-06-15T10:11:07.892Z,40.32
2018-06-15T10:13:36.727Z,40.99
2018-06-15T10:16:05.747Z,43.17
2018-06-15T10:18:34.589Z,42.74
2018-06-15T10:21:03.489Z,41.54
2018-06-15T10:23:32.338Z,41.60
2018-06-15T10:26:01.197Z,40.48
2018-06-15T10:28:30.080Z,39.39
2018-06-15T10:30:58.938Z,37.84
2018-06-15T10:33:27.801Z,36.37
2018-06-15T10:35:57.043Z,36.23
2018-06-15T10:38:25.985Z,34.26
2018-06-15T10:40:54.851Z,35.92
2018-06-15T10:43:23.731Z,38.17
2018-06-15T10:45:52.599Z,39.28
2018-06-15T10:48:21.485Z,40.52
2018-06-15T10:50:50.410Z,39.78
2018-06-15T10:53:19.213Z,38.17
2018-06-15T10:55:48.078Z,37.34
2018-06-15T10:58:17.003Z,33.96
2018-06-15T11:00:45.862Z,33.60
2018-06-15T11:03:14.712Z,32.97
2018-06-15T11:05:43.621Z,33.98
2018-06-15T11:08:12.543Z,32.84
2018-06-15T11:10:41.433Z,33.83
2018-06-15T11:13:10.266Z,32.32
2018-06-15T11:15:39.131Z,31.27
2018-06-15T11:18:07.972Z,30.91
2018-06-15T11:20:36.861Z,28.89
2018-06-15T11:23:05.741Z,29.88
2018-06-15T11:25:34.673Z,31.29
2018-06-15T11:28:03.516Z,32.58
2018-06-15T11:30:32.366Z,33.50
2018-06-15T11:33:01.281Z,32.86
2018-06-15T11:35:30.180Z,31.58
2018-06-15T11:37:59.061Z,30.98
2018-06-15T11:40:28.060Z,26.49
2018-06-15T11:42:56.941Z,27.51
2018-06-15T11:45:25.893Z,28.74
2018-06-15T11:47:54.845Z,31.02
2018-06-15T11:50:23.864Z,32.29
2018-06-15T11:52:53.051Z,32.72
2018-06-15T11:55:21.966Z,33.64
2018-06-15T11:57:53.902Z,32.93
2018-06-15T12:00:22.788Z,33.11
2018-06-15T12:02:51.703Z,33.96
2018-06-15T12:05:20.603Z,33.03
2018-06-15T12:07:49.517Z,32.96
2018-06-15T12:10:18.369Z,32.81
2018-06-15T12:12:47.275Z,33.41
2018-06-15T12:15:16.153Z,34.02
2018-06-15T12:17:45.032Z,32.88
2018-06-15T12:20:13.902Z,34.58
2018-06-15T12:22:42.759Z,31.61
2018-06-15T12:25:11.610Z,30.97
2018-06-15T12:27:40.687Z,33.29
2018-06-15T12:30:09.624Z,32.62
2018-06-15T12:32:38.574Z,34.63
2018-06-15T12:35:07.489Z,32.98
2018-06-15T12:37:36.380Z,32.52
2018-06-15T12:40:05.363Z,33.07
2018-06-15T12:42:34.251Z,34.27
2018-06-15T12:45:03.206Z,34.54
2018-06-15T12:47:32.032Z,34.21
2018-06-15T12:50:01.509Z,32.39
2018-06-15T12:52:30.917Z,33.22
2018-06-15T12:55:00.151Z,31.52
2018-06-15T12:57:29.333Z,30.81
2018-06-15T12:59:58.415Z,34.00
2018-06-15T13:02:27.957Z,35.18
2018-06-15T13:04:57.213Z,33.04
2018-06-15T13:07:26.484Z,35.10
2018-06-15T13:09:55.662Z,35.32
2018-06-15T13:12:24.892Z,34.65
2018-06-15T13:14:54.027Z,34.92
2018-06-15T13:17:25.288Z,34.60
2018-06-15T13:19:57.651Z,34.97
2018-06-15T13:22:26.739Z,32.66
2018-06-15T13:24:55.936Z,33.08
2018-06-15T13:27:25.044Z,35.03
2018-06-15T13:29:54.124Z,35.67
2018-06-15T13:32:23.556Z,33.87
2018-06-15T13:34:52.683Z,33.69
2018-06-15T13:37:22.753Z,33.12
2018-06-15T13:39:52.120Z,32.53
2018-06-15T13:42:23.806Z,32.72
2018-06-15T13:44:53.109Z,33.00
2018-06-15T13:47:22.267Z,34.02
2018-06-15T13:49:51.539Z,34.05
2018-06-15T13:52:20.555Z,34.34
2018-06-15T13:54:52.715Z,34.07
2018-06-15T13:57:21.757Z,35.33
2018-06-15T13:59:51.353Z,33.83
2018-06-15T14:02:20.252Z,33.70
2018-06-15T14:04:49.567Z,35.37
2018-06-15T14:07:21.351Z,35.35
2018-06-15T14:09:50.707Z,32.46
2018-06-15T14:12:19.814Z,32.93
2018-06-15T14:14:48.920Z,33.05
2018-06-15T14:17:18.022Z,33.28
2018-06-15T14:19:47.109Z,34.17
2018-06-15T14:22:17.061Z,33.91
2018-06-15T14:24:46.498Z,36.33
2018-06-15T14:27:15.569Z,36.72
2018-06-15T14:29:44.923Z,37.27
2018-06-15T14:32:14.263Z,37.72
2018-06-15T14:34:44.573Z,35.00
2018-06-15T14:37:16.539Z,34.05
2018-06-15T14:39:42.692Z,34.95
2018-06-15T14:46:18.135Z,36.55
2018-06-15T14:49:30.036Z,37.34
2018-06-15T14:52:23.232Z,37.14
2018-06-15T14:55:22.233Z,38.25
2018-06-15T14:58:11.581Z,35.73
2018-06-15T15:01:00.482Z,36.20
2018-06-15T15:03:44.208Z,36.59
2018-06-15T15:06:20.529Z,36.96
2018-06-15T15:09:10.302Z,36.26
2018-06-15T15:11:56.381Z,36.55
2018-06-15T15:14:38.243Z,36.05
2018-06-15T15:17:26.745Z,35.07
2018-06-15T15:19:57.634Z,33.35
2018-06-15T15:22:37.947Z,33.48
2018-06-15T15:25:10.519Z,33.38
2018-06-15T15:27:54.991Z,31.32
2018-06-15T15:30:43.388Z,31.84
2018-06-15T15:33:36.026Z,34.39
2018-06-15T15:36:26.031Z,34.23
2018-06-15T15:39:12.125Z,34.17
2018-06-15T15:42:00.274Z,34.64
2018-06-15T15:44:37.491Z,34.76
2018-06-15T15:47:18.090Z,34.48
2018-06-15T15:49:58.918Z,33.06
2018-06-15T15:52:31.388Z,33.04
2018-06-15T15:55:02.850Z,33.11
2018-06-15T15:58:06.578Z,34.01
2018-06-15T16:01:01.698Z,34.47
2018-06-15T16:03:41.353Z,35.09
2018-06-15T16:06:23.813Z,35.75
2018-06-15T16:09:00.661Z,34.99
2018-06-15T16:11:42.831Z,36.26
2018-06-15T16:14:14.635Z,36.04
2018-06-15T16:16:51.825Z,36.65
2018-06-15T16:19:45.447Z,37.79
2018-06-15T16:22:43.186Z,38.38
2018-06-15T16:25:25.365Z,38.18
2018-06-15T16:27:59.997Z,38.67
2018-06-15T16:30:34.984Z,39.21
2018-06-15T16:33:08.508Z,38.29
2018-06-15T16:38:44.792Z,37.81
2018-06-15T16:41:13.980Z,39.00
2018-06-15T16:43:43.430Z,37.41
2018-06-15T16:46:12.713Z,37.68
2018-06-15T16:48:42.135Z,37.31
2018-06-15T16:51:11.435Z,38.90
2018-06-15T16:53:42.079Z,37.04
2018-06-15T16:56:11.268Z,35.38
2018-06-15T16:58:40.669Z,36.23
2018-06-15T17:01:10.082Z,39.97
2018-06-15T17:03:39.403Z,40.19
2018-06-15T17:06:08.809Z,37.26
2018-06-15T17:08:38.168Z,37.79
2018-06-15T17:11:07.465Z,36.89
2018-06-15T17:13:39.046Z,36.89
2018-06-15T17:16:08.665Z,37.27
2018-06-15T17:18:38.220Z,35.66
2018-06-15T17:21:07.295Z,36.60
2018-06-15T17:23:36.432Z,38.13
2018-06-15T17:26:05.600Z,37.92
2018-06-15T17:28:35.023Z,37.83
2018-06-15T17:31:06.343Z,38.27
2018-06-15T17:33:35.556Z,38.96
2018-06-15T17:36:04.775Z,37.34
2018-06-15T17:38:34.295Z,38.09
2018-06-15T17:41:03.802Z,37.88
2018-06-15T17:43:33.016Z,37.89
2018-06-15T17:46:05.278Z,37.89
2018-06-15T17:48:34.745Z,38.60
2018-06-15T17:51:05.374Z,39.26
2018-06-15T17:53:34.397Z,38.94
2018-06-15T17:56:06.335Z,38.58
2018-06-15T17:58:35.821Z,39.72
2018-06-15T18:01:05.667Z,39.27
2018-06-15T18:03:35.075Z,39.06
2018-06-15T18:06:04.205Z,39.28
2018-06-15T18:08:33.479Z,40.12
2018-06-15T18:11:02.789Z,40.15
2018-06-15T18:13:32.042Z,42.19
2018-06-15T18:16:01.352Z,41.56
2018-06-15T18:18:30.621Z,41.11
2018-06-15T18:21:00.055Z,41.87
2018-06-15T18:23:29.057Z,40.39
2018-06-15T18:25:58.326Z,41.74
2018-06-15T18:28:27.660Z,41.86
2018-06-15T18:30:56.850Z,42.09
2018-06-15T18:33:26.737Z,42.61
2018-06-15T18:35:59.542Z,43.42
2018-06-15T18:38:28.937Z,43.92
2018-06-15T18:41:00.830Z,44.58
2018-06-15T18:43:30.089Z,44.14
2018-06-15T18:45:59.300Z,44.50
2018-06-15T18:48:28.631Z,44.35
2018-06-15T18:50:57.681Z,45.11
2018-06-15T18:53:27.203Z,44.95
2018-06-15T18:55:58.122Z,44.66
2018-06-15T18:58:27.599Z,45.43
2018-06-15T19:00:57.271Z,46.30
2018-06-15T19:03:26.670Z,46.08
2018-06-15T19:06:01.033Z,46.31
2018-06-15T19:08:30.523Z,46.86
2018-06-15T19:10:59.644Z,47.74
2018-06-15T19:13:29.264Z,47.59
2018-06-15T19:15:59.071Z,47.66
2018-06-15T19:18:28.553Z,48.97
2018-06-15T19:20:59.322Z,48.55
2018-06-15T19:23:28.683Z,49.18
2018-06-15T19:25:57.877Z,49.85
2018-06-15T19:28:27.031Z,50.13
2018-06-15T19:30:56.166Z,50.35
2018-06-15T19:33:25.365Z,50.62
2018-06-15T19:35:54.798Z,51.31
2018-06-15T19:38:24.218Z,51.33
2018-06-15T19:40:53.663Z,51.52
2018-06-15T19:43:22.890Z,51.97
2018-06-15T19:45:54.679Z,52.76
2018-06-15T19:48:24.503Z,53.21
2018-06-15T19:50:53.770Z,53.42
2018-06-15T19:53:22.951Z,54.08
2018-06-15T19:55:52.302Z,54.46
2018-06-15T19:58:21.518Z,54.67
2018-06-15T20:00:50.642Z,54.76
2018-06-15T20:03:19.715Z,55.11
2018-06-15T20:05:49.272Z,55.49
2018-06-15T20:08:18.419Z,55.73
2018-06-15T20:10:47.707Z,56.37
2018-06-15T20:13:16.685Z,56.37
2018-06-15T20:15:46.022Z,56.39
2018-06-15T20:18:15.394Z,56.74
2018-06-15T20:20:47.646Z,56.64
2018-06-15T20:23:17.163Z,57.08
2018-06-15T20:25:48.751Z,57.77
2018-06-15T20:28:18.281Z,58.07
2018-06-15T20:30:47.693Z,58.03
2018-06-15T20:33:16.505Z,58.73
2018-06-15T20:35:45.419Z,58.94
2018-06-15T20:38:14.308Z,59.62
2018-06-15T20:40:43.200Z,59.87
2018-06-15T20:43:12.376Z,60.14
2018-06-15T20:45:41.223Z,60.35
2018-06-15T20:48:10.072Z,60.63
2018-06-15T20:50:39.069Z,60.34
2018-06-15T20:53:07.950Z,59.89
2018-06-15T20:55:43.083Z,59.64
2018-06-15T20:58:11.979Z,59.54
2018-06-15T21:00:40.849Z,59.51
2018-06-15T21:03:09.714Z,59.80
2018-06-15T21:05:38.650Z,60.05
2018-06-15T21:08:07.585Z,60.53
2018-06-15T21:10:36.812Z,60.62
2018-06-15T21:13:05.970Z,60.93
2018-06-15T21:15:34.890Z,61.05
2018-06-15T21:18:03.863Z,60.82
2018-06-15T21:20:32.733Z,61.51
2018-06-15T21:23:01.641Z,61.29
2018-06-15T21:25:33.129Z,61.11
2018-06-15T21:28:01.966Z,61.37
2018-06-15T21:30:30.899Z,61.66
2018-06-15T21:32:59.789Z,62.05
2018-06-15T21:35:28.662Z,62.12
2018-06-15T21:37:57.690Z,62.43
2018-06-15T21:40:26.548Z,62.59
2018-06-15T21:42:55.445Z,62.58
2018-06-15T21:45:24.313Z,62.53
2018-06-15T21:47:53.197Z,62.61
2018-06-15T21:50:22.137Z,62.85
2018-06-15T21:52:51.053Z,63.99
2018-06-15T21:55:20.001Z,64.38
2018-06-15T21:57:48.766Z,64.16
2018-06-15T22:00:17.705Z,64.00
2018-06-15T22:02:46.580Z,64.80
2018-06-15T22:05:15.447Z,63.68
2018-06-15T22:07:44.307Z,63.59
2018-06-15T22:10:13.162Z,63.90
2018-06-15T22:12:42.120Z,63.55
2018-06-15T22:15:11.117Z,63.62
2018-06-15T22:17:40.104Z,63.78
2018-06-15T22:20:11.412Z,63.64
2018-06-15T22:22:40.250Z,63.92
2018-06-15T22:25:09.167Z,63.83
2018-06-15T22:27:38.462Z,63.72
2018-06-15T22:30:07.860Z,63.95
2018-06-15T22:32:36.752Z,64.27
2018-06-15T22:35:05.895Z,64.29
2018-06-15T22:37:34.834Z,64.37
2018-06-15T22:40:03.708Z,64.22
2018-06-15T22:42:34.260Z,64.06
2018-06-15T22:45:03.197Z,64.24
2018-06-15T22:47:32.061Z,64.51
2018-06-15T22:50:00.921Z,64.71
2018-06-15T22:52:29.781Z,64.69
2018-06-15T22:54:58.716Z,64.25
2018-06-15T22:57:27.478Z,64.19
2018-06-15T22:59:56.360Z,64.62
2018-06-15T23:02:25.276Z,64.99
2018-06-15T23:04:57.467Z,65.17
2018-06-15T23:07:26.365Z,64.32
2018-06-15T23:09:55.283Z,65.08
2018-06-15T23:12:24.130Z,65.27
2018-06-15T23:14:52.962Z,65.28
2018-06-15T23:17:21.846Z,65.58
2018-06-15T23:19:50.740Z,65.42
2018-06-15T23:22:19.623Z,64.46
2018-06-15T23:24:48.584Z,64.77
2018-06-15T23:27:23.707Z,64.69
2018-06-15T23:29:52.586Z,65.00
2018-06-15T23:32:21.441Z,64.63
2018-06-15T23:34:50.873Z,64.86
2018-06-15T23:37:19.743Z,64.61
2018-06-15T23:39:48.611Z,65.50
2018-06-15T23:42:17.518Z,65.43
2018-06-15T23:44:46.339Z,65.44
2018-06-15T23:47:15.220Z,65.35
2018-06-15T23:49:47.198Z,65.11
2018-06-15T23:52:16.100Z,65.50
2018-06-15T23:54:44.960Z,65.88
2018-06-15T23:57:13.843Z,65.95
2018-06-15T23:59:42.729Z,65.67
